createdAt,value
2023-01-30T00:01:41.066Z,3.13
2023-01-30T00:05:43.239Z,4.30
2023-01-30T00:09:45.406Z,2.43
2023-01-30T00:13:48.661Z,3.27
2023-01-30T00:17:50.842Z,3.60
2023-01-30T00:21:53.026Z,3.07
2023-01-30T00:25:55.161Z,2.57
2023-01-30T00:30:02.782Z,2.37
2023-01-30T00:34:06.106Z,2.87
2023-01-30T00:38:08.230Z,3.00
2023-01-30T00:42:10.696Z,3.50
2023-01-30T00:46:17.674Z,3.53
2023-01-30T00:50:19.901Z,4.63
2023-01-30T00:54:22.070Z,3.03
2023-01-30T00:58:24.902Z,3.90
2023-01-30T01:02:27.087Z,4.17
2023-01-30T01:06:29.275Z,3.57
2023-01-30T01:10:32.156Z,2.63
2023-01-30T01:14:34.612Z,3.73
2023-01-30T01:18:36.988Z,4.47
2023-01-30T01:22:39.231Z,4.77
2023-01-30T01:26:41.500Z,4.07
2023-01-30T01:30:46.253Z,4.47
2023-01-30T01:34:48.395Z,3.53
2023-01-30T01:38:50.564Z,4.30
2023-01-30T01:42:52.758Z,4.90
2023-01-30T01:46:59.723Z,5.10
2023-01-30T01:51:23.237Z,4.07
2023-01-30T01:55:25.752Z,5.13
2023-01-30T01:59:30.944Z,5.70
2023-01-30T02:03:34.636Z,4.63
2023-01-30T02:07:47.769Z,4.30
2023-01-30T02:11:55.357Z,3.07
2023-01-30T02:16:01.586Z,3.53
2023-01-30T02:20:22.134Z,5.30
2023-01-30T02:24:24.263Z,3.90
2023-01-30T02:28:44.444Z,5.77
2023-01-30T02:32:51.293Z,3.60
2023-01-30T02:37:12.416Z,5.53
2023-01-30T02:41:36.475Z,5.37
2023-01-30T02:45:38.674Z,5.83
2023-01-30T02:49:43.040Z,3.73
2023-01-30T02:53:46.370Z,2.10
2023-01-30T02:57:48.827Z,5.83
2023-01-30T03:02:09.323Z,4.67
2023-01-30T03:06:17.704Z,4.23
2023-01-30T03:10:20.298Z,4.90
2023-01-30T03:14:29.802Z,4.70
2023-01-30T03:18:31.974Z,4.53
2023-01-30T03:22:34.414Z,4.23
2023-01-30T03:26:38.251Z,3.40
2023-01-30T03:30:40.587Z,5.73
2023-01-30T03:34:44.975Z,3.37
2023-01-30T03:38:47.209Z,6.27
2023-01-30T03:42:49.996Z,6.80
2023-01-30T03:46:52.542Z,4.87
2023-01-30T03:50:55.163Z,5.33
2023-01-30T03:54:57.591Z,5.83
2023-01-30T03:59:00.224Z,4.43
2023-01-30T04:03:11.034Z,4.97
2023-01-30T04:07:13.654Z,4.67
2023-01-30T04:11:17.234Z,4.70
2023-01-30T04:15:20.295Z,3.90
2023-01-30T04:19:22.633Z,2.87
2023-01-30T04:23:25.215Z,4.77
2023-01-30T04:27:27.376Z,2.80
2023-01-30T04:31:48.032Z,4.00
2023-01-30T04:36:03.762Z,4.90
2023-01-30T04:40:07.185Z,4.43
2023-01-30T04:44:10.497Z,3.17
2023-01-30T04:48:26.170Z,3.17
2023-01-30T04:52:28.495Z,4.07
2023-01-30T04:56:30.685Z,4.97
2023-01-30T05:00:33.006Z,3.07
2023-01-30T05:04:36.392Z,4.53
2023-01-30T05:08:38.544Z,3.63
2023-01-30T05:12:41.789Z,2.43
2023-01-30T05:16:43.975Z,5.07
2023-01-30T05:20:46.149Z,2.73
2023-01-30T05:24:48.288Z,3.47
2023-01-30T05:28:57.155Z,3.77
2023-01-30T05:32:59.647Z,3.77
2023-01-30T05:37:01.795Z,1.97
2023-01-30T05:41:08.106Z,4.37
2023-01-30T05:45:10.531Z,4.93
2023-01-30T05:49:12.697Z,3.67
2023-01-30T05:53:14.947Z,3.00
2023-01-30T05:57:17.112Z,3.70
2023-01-30T06:01:19.398Z,4.40
2023-01-30T06:05:21.608Z,3.90
2023-01-30T06:09:23.720Z,4.47
2023-01-30T06:13:25.891Z,3.77
2023-01-30T06:17:29.762Z,3.20
2023-01-30T06:21:32.243Z,4.33
2023-01-30T06:25:34.651Z,3.50
2023-01-30T06:29:36.879Z,5.90
2023-01-30T06:33:39.048Z,4.10
2023-01-30T06:37:41.198Z,3.93
2023-01-30T06:41:43.465Z,2.77
2023-01-30T06:45:45.605Z,4.33
2023-01-30T06:49:47.773Z,3.93
2023-01-30T06:53:52.397Z,1.90
2023-01-30T06:58:05.383Z,2.87
2023-01-30T07:02:07.636Z,3.40
2023-01-30T07:06:09.860Z,3.87
2023-01-30T07:10:12.303Z,3.23
2023-01-30T07:14:14.470Z,1.67
2023-01-30T07:18:16.665Z,2.77
2023-01-30T07:22:18.807Z,2.87
2023-01-30T07:26:21.019Z,2.50
2023-01-30T07:30:23.421Z,2.40
2023-01-30T07:34:25.628Z,2.03
2023-01-30T07:38:27.805Z,2.10
2023-01-30T07:42:29.935Z,1.93
2023-01-30T07:46:32.903Z,1.53
2023-01-30T07:50:35.141Z,1.93
2023-01-30T07:54:37.335Z,1.50
2023-01-30T07:58:39.512Z,1.80
2023-01-30T08:02:41.693Z,1.60
2023-01-30T08:06:43.852Z,2.07
2023-01-30T08:10:46.035Z,2.13
2023-01-30T08:14:48.214Z,1.80
2023-01-30T08:18:50.367Z,1.30
2023-01-30T08:22:52.797Z,1.07
2023-01-30T08:26:55.012Z,1.90
2023-01-30T08:30:57.613Z,1.20
2023-01-30T08:34:59.863Z,0.97
2023-01-30T08:39:02.017Z,1.63
2023-01-30T08:43:04.175Z,1.43
2023-01-30T08:47:06.563Z,1.17
2023-01-30T08:51:08.954Z,1.07
2023-01-30T08:55:11.436Z,1.10
2023-01-30T08:59:13.572Z,1.30
2023-01-30T09:03:15.883Z,0.90
2023-01-30T09:07:18.473Z,1.30
2023-01-30T09:11:20.591Z,0.70
2023-01-30T09:15:22.793Z,1.10
2023-01-30T09:19:28.779Z,1.37
2023-01-30T09:23:30.964Z,1.23
2023-01-30T09:27:33.130Z,1.30
2023-01-30T09:31:35.345Z,1.07
2023-01-30T09:35:37.566Z,1.00
2023-01-30T09:39:39.746Z,0.40
2023-01-30T09:43:44.946Z,0.90
2023-01-30T09:47:53.029Z,0.57
2023-01-30T09:51:58.161Z,0.90
2023-01-30T09:56:00.543Z,0.90
2023-01-30T10:00:05.713Z,0.60
2023-01-30T10:04:14.450Z,0.83
2023-01-30T10:08:22.396Z,0.80
2023-01-30T10:12:33.571Z,0.40
2023-01-30T10:16:40.168Z,0.73
2023-01-30T10:20:42.319Z,0.53
2023-01-30T10:24:59.728Z,0.67
2023-01-30T10:29:08.759Z,0.80
2023-01-30T10:33:19.267Z,0.50
2023-01-30T10:37:31.404Z,0.80
2023-01-30T10:41:52.338Z,1.13
2023-01-30T10:46:24.123Z,1.07
2023-01-30T10:50:46.670Z,1.27
2023-01-30T10:54:51.668Z,1.00
2023-01-30T10:58:59.791Z,0.60
2023-01-30T11:03:10.110Z,0.83
2023-01-30T11:07:13.040Z,1.03
2023-01-30T11:11:24.087Z,0.50
2023-01-30T11:15:39.311Z,1.13
2023-01-30T11:19:42.311Z,1.37
2023-01-30T11:23:44.852Z,0.93
2023-01-30T11:27:52.972Z,0.60
2023-01-30T11:31:55.517Z,1.43
2023-01-30T11:36:04.498Z,1.00
2023-01-30T11:40:08.864Z,0.83
2023-01-30T11:44:11.860Z,0.97
2023-01-30T11:48:33.604Z,0.97
2023-01-30T11:52:42.924Z,0.60
2023-01-30T11:56:55.850Z,0.73
2023-01-30T12:00:59.161Z,0.83
2023-01-30T12:05:17.500Z,0.53
2023-01-30T12:09:30.749Z,0.70
2023-01-30T12:13:35.289Z,0.53
2023-01-30T12:17:40.520Z,0.37
2023-01-30T12:21:45.717Z,0.73
2023-01-30T12:26:01.788Z,0.60
2023-01-30T12:30:21.318Z,1.00
2023-01-30T12:34:27.173Z,0.70
2023-01-30T12:38:41.596Z,1.20
2023-01-30T12:42:43.734Z,2.00
2023-01-30T12:46:55.234Z,1.33
2023-01-30T12:50:57.367Z,1.03
2023-01-30T12:55:18.245Z,0.90
2023-01-30T12:59:46.606Z,1.10
2023-01-30T13:03:56.000Z,0.90
2023-01-30T13:08:04.222Z,0.70
2023-01-30T13:12:21.662Z,0.60
2023-01-30T13:16:37.201Z,1.00
2023-01-30T13:20:45.616Z,0.97
2023-01-30T13:24:50.915Z,0.70
2023-01-30T13:29:01.212Z,0.80
2023-01-30T13:33:10.736Z,0.70
2023-01-30T13:37:14.688Z,0.97
2023-01-30T13:41:18.333Z,0.43
2023-01-30T13:45:22.972Z,0.70
2023-01-30T13:49:40.491Z,0.80
2023-01-30T13:53:47.215Z,0.87
2023-01-30T13:58:02.853Z,0.63
2023-01-30T14:02:05.101Z,0.87
2023-01-30T14:06:25.948Z,0.77
2023-01-30T14:10:28.182Z,0.40
2023-01-30T14:14:31.871Z,0.83
2023-01-30T14:18:35.107Z,0.43
2023-01-30T14:22:49.739Z,0.33
2023-01-30T14:26:51.963Z,0.47
2023-01-30T14:30:55.547Z,0.57
2023-01-30T14:34:57.733Z,1.77
2023-01-30T14:39:19.830Z,0.30
2023-01-30T14:43:28.257Z,0.60
2023-01-30T14:47:34.122Z,0.20
2023-01-30T14:51:49.534Z,0.60
2023-01-30T14:56:00.200Z,0.57
2023-01-30T15:00:16.511Z,0.50
2023-01-30T15:04:20.477Z,0.37
2023-01-30T15:08:24.607Z,0.30
2023-01-30T15:12:35.639Z,0.23
2023-01-30T15:16:58.223Z,0.53
2023-01-30T15:21:03.471Z,0.77
2023-01-30T15:25:16.969Z,0.90
2023-01-30T15:29:32.544Z,0.30
2023-01-30T15:33:43.468Z,0.43
2023-01-30T15:37:55.893Z,0.97
2023-01-30T15:42:01.734Z,0.50
2023-01-30T15:46:06.707Z,0.50
2023-01-30T15:50:11.987Z,0.40
2023-01-30T15:54:18.359Z,0.30
2023-01-30T15:58:21.383Z,0.60
2023-01-30T16:02:31.179Z,0.43
2023-01-30T16:06:37.383Z,0.27
2023-01-30T16:10:45.049Z,0.40
2023-01-30T16:14:47.227Z,0.30
2023-01-30T16:18:55.308Z,0.47
2023-01-30T16:22:57.592Z,0.97
2023-01-30T16:27:01.409Z,1.10
2023-01-30T16:31:05.436Z,1.00
2023-01-30T16:35:18.745Z,0.87
2023-01-30T16:39:29.944Z,0.53
2023-01-30T16:43:33.159Z,0.53
2023-01-30T16:47:35.331Z,0.60
2023-01-30T16:51:37.524Z,0.80
2023-01-30T16:55:39.784Z,0.90
2023-01-30T16:59:42.034Z,0.57
2023-01-30T17:03:49.310Z,0.73
2023-01-30T17:07:52.268Z,0.53
2023-01-30T17:11:54.489Z,0.50
2023-01-30T17:16:16.688Z,0.43
2023-01-30T17:20:19.012Z,1.37
2023-01-30T17:24:22.648Z,0.70
2023-01-30T17:28:24.857Z,0.83
2023-01-30T17:32:27.104Z,0.90
2023-01-30T17:36:30.417Z,0.73
2023-01-30T17:40:33.792Z,1.33
2023-01-30T17:44:35.980Z,0.70
2023-01-30T17:48:38.290Z,0.80
2023-01-30T17:52:40.614Z,0.60
2023-01-30T17:56:43.710Z,0.80
2023-01-30T18:00:45.875Z,1.13
2023-01-30T18:04:48.082Z,0.63
2023-01-30T18:08:50.255Z,0.90
2023-01-30T18:12:52.444Z,0.90
2023-01-30T18:16:55.645Z,1.37
2023-01-30T18:20:57.855Z,1.40
2023-01-30T18:25:00.106Z,0.50
2023-01-30T18:29:02.277Z,1.00
2023-01-30T18:33:04.500Z,0.77
2023-01-30T18:37:06.677Z,2.27
2023-01-30T18:41:08.929Z,0.80
2023-01-30T18:45:11.172Z,2.50
2023-01-30T18:49:13.446Z,1.80
2023-01-30T18:53:15.624Z,1.40
2023-01-30T18:57:17.767Z,0.67
2023-01-30T19:01:21.584Z,1.30
2023-01-30T19:05:23.781Z,0.93
2023-01-30T19:09:25.968Z,1.07
2023-01-30T19:13:28.170Z,0.90
2023-01-30T19:17:30.322Z,0.50
2023-01-30T19:21:32.808Z,1.03
2023-01-30T19:25:34.999Z,1.13
2023-01-30T19:29:37.227Z,0.97
2023-01-30T19:33:39.396Z,0.97
2023-01-30T19:37:41.555Z,1.27
2023-01-30T19:41:43.722Z,1.17
2023-01-30T19:45:45.948Z,1.30
2023-01-30T19:49:48.270Z,1.20
2023-01-30T19:53:52.062Z,0.90
2023-01-30T19:57:54.480Z,1.10
2023-01-30T20:01:56.712Z,0.90
2023-01-30T20:06:15.514Z,0.93
2023-01-30T20:10:18.312Z,0.80
2023-01-30T20:14:20.790Z,1.37
2023-01-30T20:18:23.069Z,1.20
2023-01-30T20:22:25.271Z,1.10
2023-01-30T20:26:29.359Z,1.60
2023-01-30T20:30:31.658Z,1.57
2023-01-30T20:34:33.882Z,0.57
2023-01-30T20:38:37.358Z,1.00
2023-01-30T20:42:39.725Z,1.00
2023-01-30T20:46:43.687Z,1.00
2023-01-30T20:50:45.906Z,0.90
2023-01-30T20:54:48.079Z,0.97
2023-01-30T20:58:50.514Z,1.10
2023-01-30T21:02:52.738Z,1.13
2023-01-30T21:06:54.962Z,1.20
2023-01-30T21:11:05.051Z,1.00
2023-01-30T21:15:07.471Z,1.20
2023-01-30T21:19:14.270Z,0.83
2023-01-30T21:23:16.696Z,0.90
2023-01-30T21:27:18.884Z,0.80
2023-01-30T21:31:25.449Z,0.40
2023-01-30T21:35:27.839Z,0.90
2023-01-30T21:39:30.029Z,0.87
2023-01-30T21:43:32.287Z,1.37
2023-01-30T21:47:34.542Z,1.00
2023-01-30T21:51:36.749Z,0.70
2023-01-30T21:55:38.959Z,1.10
2023-01-30T21:59:41.143Z,2.10
2023-01-30T22:03:43.334Z,1.13
2023-01-30T22:07:45.486Z,1.37
2023-01-30T22:11:47.635Z,1.57
2023-01-30T22:15:49.843Z,1.00
2023-01-30T22:19:52.011Z,0.60
2023-01-30T22:23:54.978Z,0.73
2023-01-30T22:27:57.200Z,0.63
2023-01-30T22:31:59.441Z,0.47
2023-01-30T22:36:02.135Z,0.90
2023-01-30T22:40:04.424Z,0.73
2023-01-30T22:44:08.925Z,0.60
2023-01-30T22:48:11.089Z,0.70
2023-01-30T22:52:13.447Z,0.80
2023-01-30T22:56:16.997Z,0.70
2023-01-30T23:00:19.348Z,0.80
2023-01-30T23:04:23.068Z,1.13
2023-01-30T23:08:25.815Z,1.00
2023-01-30T23:12:28.762Z,0.90
2023-01-30T23:16:32.745Z,0.60
2023-01-30T23:20:35.526Z,0.70
2023-01-30T23:24:37.816Z,1.27
2023-01-30T23:28:40.313Z,0.33
2023-01-30T23:32:42.516Z,0.77
2023-01-30T23:36:44.994Z,1.07
2023-01-30T23:40:47.600Z,0.60
2023-01-30T23:44:49.815Z,1.03
2023-01-30T23:48:53.272Z,1.20
2023-01-30T23:52:55.479Z,0.80
2023-01-30T23:56:57.660Z,0.80
